sensor_id;sensor_type;location;lat;lon;timestamp;pressure;altitude;pressure_sealevel;temperature;humidity
80103;BME280;69410;47.648;19.030;2023-04-25T00:00:22;99421.78;;;12.27;71.67
80103;BME280;69410;47.648;19.030;2023-04-25T00:00:52;99416.97;;;12.30;71.97
80103;BME280;69410;47.648;19.030;2023-04-25T00:01:25;99416.50;;;12.35;70.97
80103;BME280;69410;47.648;19.030;2023-04-25T00:01:55;99421.78;;;12.35;71.23
80103;BME280;69410;47.648;19.030;2023-04-25T00:02:26;99417.31;;;12.35;71.21
80103;BME280;69410;47.648;19.030;2023-04-25T00:02:57;99418.31;;;12.34;71.61
80103;BME280;69410;47.648;19.030;2023-04-25T00:03:27;99424.09;;;12.38;71.37
80103;BME280;69410;47.648;19.030;2023-04-25T00:03:58;99421.94;;;12.41;71.49
80103;BME280;69410;47.648;19.030;2023-04-25T00:04:29;99411.38;;;12.41;71.03
80103;BME280;69410;47.648;19.030;2023-04-25T00:05:00;99412.38;;;12.40;71.85
80103;BME280;69410;47.648;19.030;2023-04-25T00:05:31;99414.53;;;12.37;71.03
80103;BME280;69410;47.648;19.030;2023-04-25T00:06:02;99409.91;;;12.22;70.57
80103;BME280;69410;47.648;19.030;2023-04-25T00:06:34;99414.03;;;12.17;71.67
80103;BME280;69410;47.648;19.030;2023-04-25T00:07:05;99415.69;;;12.18;71.43
80103;BME280;69410;47.648;19.030;2023-04-25T00:07:35;99424.25;;;12.20;72.19
80103;BME280;69410;47.648;19.030;2023-04-25T00:08:06;99422.59;;;12.19;71.48
80103;BME280;69410;47.648;19.030;2023-04-25T00:08:37;99422.28;;;12.22;71.35
80103;BME280;69410;47.648;19.030;2023-04-25T00:09:08;99410.56;;;12.16;71.63
80103;BME280;69410;47.648;19.030;2023-04-25T00:09:39;99414.53;;;12.12;71.50
80103;BME280;69410;47.648;19.030;2023-04-25T00:10:10;99412.88;;;12.11;71.40
80103;BME280;69410;47.648;19.030;2023-04-25T00:10:41;99416.50;;;12.10;70.78
80103;BME280;69410;47.648;19.030;2023-04-25T00:11:12;99421.63;;;12.12;70.88
80103;BME280;69410;47.648;19.030;2023-04-25T00:11:42;99415.50;;;12.03;70.61
80103;BME280;69410;47.648;19.030;2023-04-25T00:12:13;99415.34;;;12.05;71.08
80103;BME280;69410;47.648;19.030;2023-04-25T00:12:44;99417.66;;;12.08;70.93
80103;BME280;69410;47.648;19.030;2023-04-25T00:13:15;99421.97;;;12.09;70.25
80103;BME280;69410;47.648;19.030;2023-04-25T00:13:45;99418.66;;;12.07;71.15
80103;BME280;69410;47.648;19.030;2023-04-25T00:14:16;99411.56;;;12.07;70.63
80103;BME280;69410;47.648;19.030;2023-04-25T00:14:47;99414.69;;;12.11;70.33
80103;BME280;69410;47.648;19.030;2023-04-25T00:15:18;99413.84;;;12.10;70.64
80103;BME280;69410;47.648;19.030;2023-04-25T00:15:48;99415.69;;;12.10;70.76
80103;BME280;69410;47.648;19.030;2023-04-25T00:16:19;99413.22;;;12.08;70.45
80103;BME280;69410;47.648;19.030;2023-04-25T00:16:51;99420.31;;;12.08;70.33
80103;BME280;69410;47.648;19.030;2023-04-25T00:17:22;99405.94;;;12.02;69.26
80103;BME280;69410;47.648;19.030;2023-04-25T00:17:53;99410.56;;;12.00;70.47
80103;BME280;69410;47.648;19.030;2023-04-25T00:18:24;99410.91;;;11.97;70.61
80103;BME280;69410;47.648;19.030;2023-04-25T00:18:55;99410.72;;;11.99;69.99
80103;BME280;69410;47.648;19.030;2023-04-25T00:19:25;99413.69;;;12.04;70.49
80103;BME280;69410;47.648;19.030;2023-04-25T00:19:56;99407.44;;;11.97;70.22
80103;BME280;69410;47.648;19.030;2023-04-25T00:20:27;99409.91;;;11.98;70.13
80103;BME280;69410;47.648;19.030;2023-04-25T00:20:58;99398.19;;;11.93;70.28
80103;BME280;69410;47.648;19.030;2023-04-25T00:21:29;99394.25;;;11.89;69.99
80103;BME280;69410;47.648;19.030;2023-04-25T00:22:01;99410.22;;;11.87;70.53
80103;BME280;69410;47.648;19.030;2023-04-25T00:22:32;99404.63;;;11.90;70.71
80103;BME280;69410;47.648;19.030;2023-04-25T00:23:03;99407.09;;;11.92;70.01
80103;BME280;69410;47.648;19.030;2023-04-25T00:23:34;99402.16;;;11.97;69.29
80103;BME280;69410;47.648;19.030;2023-04-25T00:24:06;99396.06;;;11.96;68.87
80103;BME280;69410;47.648;19.030;2023-04-25T00:24:36;99403.63;;;11.99;69.09
80103;BME280;69410;47.648;19.030;2023-04-25T00:25:07;99398.34;;;11.99;69.08
80103;BME280;69410;47.648;19.030;2023-04-25T00:25:38;99399.53;;;11.97;69.07
80103;BME280;69410;47.648;19.030;2023-04-25T00:26:09;99398.34;;;11.99;67.96
80103;BME280;69410;47.648;19.030;2023-04-25T00:26:40;99392.44;;;11.97;68.59
80103;BME280;69410;47.648;19.030;2023-04-25T00:27:11;99395.22;;;11.96;68.76
80103;BME280;69410;47.648;19.030;2023-04-25T00:27:41;99398.69;;;11.96;68.96
80103;BME280;69410;47.648;19.030;2023-04-25T00:28:12;99405.44;;;11.99;69.21
80103;BME280;69410;47.648;19.030;2023-04-25T00:28:43;99401.00;;;11.99;68.93
80103;BME280;69410;47.648;19.030;2023-04-25T00:29:14;99401.81;;;12.00;68.62
80103;BME280;69410;47.648;19.030;2023-04-25T00:29:45;99397.03;;;11.95;69.54
80103;BME280;69410;47.648;19.030;2023-04-25T00:30:15;99394.59;;;11.94;69.68
80103;BME280;69410;47.648;19.030;2023-04-25T00:30:46;99390.09;;;12.02;68.70
80103;BME280;69410;47.648;19.030;2023-04-25T00:31:17;99400.84;;;12.09;69.23
80103;BME280;69410;47.648;19.030;2023-04-25T00:31:48;99395.06;;;12.05;69.00
80103;BME280;69410;47.648;19.030;2023-04-25T00:32:20;99397.38;;;12.00;69.88
80103;BME280;69410;47.648;19.030;2023-04-25T00:32:51;99391.59;;;11.97;69.97
80103;BME280;69410;47.648;19.030;2023-04-25T00:33:21;99389.47;;;11.92;68.89
80103;BME280;69410;47.648;19.030;2023-04-25T00:33:52;99397.22;;;11.94;69.54
80103;BME280;69410;47.648;19.030;2023-04-25T00:34:23;99386.66;;;11.94;68.51
80103;BME280;69410;47.648;19.030;2023-04-25T00:34:54;99394.41;;;11.95;67.76
80103;BME280;69410;47.648;19.030;2023-04-25T00:35:25;99387.16;;;11.97;68.39
80103;BME280;69410;47.648;19.030;2023-04-25T00:35:56;99397.03;;;11.95;68.91
80103;BME280;69410;47.648;19.030;2023-04-25T00:36:26;99394.59;;;11.94;68.30
80103;BME280;69410;47.648;19.030;2023-04-25T00:36:57;99397.22;;;11.94;68.53
80103;BME280;69410;47.648;19.030;2023-04-25T00:37:28;99393.25;;;11.90;68.32
80103;BME280;69410;47.648;19.030;2023-04-25T00:37:59;99399.19;;;11.92;68.97
80103;BME280;69410;47.648;19.030;2023-04-25T00:38:29;99389.78;;;11.97;68.33
80103;BME280;69410;47.648;19.030;2023-04-25T00:39:00;99392.09;;;12.00;68.82
80103;BME280;69410;47.648;19.030;2023-04-25T00:39:31;99381.06;;;12.05;68.14
80103;BME280;69410;47.648;19.030;2023-04-25T00:40:05;99389.47;;;12.00;68.69
80103;BME280;69410;47.648;19.030;2023-04-25T00:40:36;99381.19;;;12.03;68.11
80103;BME280;69410;47.648;19.030;2023-04-25T00:41:07;99389.94;;;12.04;68.88
80103;BME280;69410;47.648;19.030;2023-04-25T00:41:38;99388.78;;;12.06;68.34
80103;BME280;69410;47.648;19.030;2023-04-25T00:42:09;99388.78;;;12.06;67.92
80103;BME280;69410;47.648;19.030;2023-04-25T00:42:41;99392.59;;;12.12;68.14
80103;BME280;69410;47.648;19.030;2023-04-25T00:43:12;99379.41;;;12.12;68.00
80103;BME280;69410;47.648;19.030;2023-04-25T00:43:44;99382.03;;;12.04;67.29
80103;BME280;69410;47.648;19.030;2023-04-25T00:44:16;99373.28;;;12.03;67.78
80103;BME280;69410;47.648;19.030;2023-04-25T00:44:47;99377.59;;;12.04;67.77
80103;BME280;69410;47.648;19.030;2023-04-25T00:45:19;99379.25;;;11.97;67.90
80103;BME280;69410;47.648;19.030;2023-04-25T00:45:50;99362.09;;;12.01;67.41
80103;BME280;69410;47.648;19.030;2023-04-25T00:46:22;99377.72;;;12.03;67.78
80103;BME280;69410;47.648;19.030;2023-04-25T00:46:53;99378.75;;;12.02;67.60
80103;BME280;69410;47.648;19.030;2023-04-25T00:47:26;99385.16;;;11.99;67.23
80103;BME280;69410;47.648;19.030;2023-04-25T00:47:58;99387.66;;;12.01;67.21
80103;BME280;69410;47.648;19.030;2023-04-25T00:48:29;99379.72;;;12.01;67.39
80103;BME280;69410;47.648;19.030;2023-04-25T00:48:59;99363.91;;;12.01;67.34
80103;BME280;69410;47.648;19.030;2023-04-25T00:49:30;99368.00;;;12.03;67.61
80103;BME280;69410;47.648;19.030;2023-04-25T00:50:01;99371.13;;;11.99;68.16
80103;BME280;69410;47.648;19.030;2023-04-25T00:50:33;99380.38;;;12.03;67.78
80103;BME280;69410;47.648;19.030;2023-04-25T00:51:04;99372.16;;;11.98;68.61
80103;BME280;69410;47.648;19.030;2023-04-25T00:51:35;99373.78;;;11.99;68.30
80103;BME280;69410;47.648;19.030;2023-04-25T00:52:06;99370.66;;;12.03;68.77
80103;BME280;69410;47.648;19.030;2023-04-25T00:52:38;99375.09;;;12.03;68.08
80103;BME280;69410;47.648;19.030;2023-04-25T00:53:10;99374.13;;;12.04;68.08
80103;BME280;69410;47.648;19.030;2023-04-25T00:53:41;99369.00;;;12.02;68.50
80103;BME280;69410;47.648;19.030;2023-04-25T00:54:13;99382.88;;;12.04;68.47
80103;BME280;69410;47.648;19.030;2023-04-25T00:54:44;99375.44;;;12.00;69.46
80103;BME280;69410;47.648;19.030;2023-04-25T00:55:15;99364.72;;;11.93;69.81
80103;BME280;69410;47.648;19.030;2023-04-25T00:55:46;99370.66;;;11.87;70.02
80103;BME280;69410;47.648;19.030;2023-04-25T00:56:17;99364.53;;;11.95;70.43
80103;BME280;69410;47.648;19.030;2023-04-25T00:56:48;99375.44;;;12.00;69.72
80103;BME280;69410;47.648;19.030;2023-04-25T00:57:19;99362.72;;;11.95;69.96
80103;BME280;69410;47.648;19.030;2023-04-25T00:57:50;99369.50;;;11.90;70.20
80103;BME280;69410;47.648;19.030;2023-04-25T00:58:22;99365.72;;;11.84;70.24
80103;BME280;69410;47.648;19.030;2023-04-25T00:58:53;99368.84;;;11.88;70.24
80103;BME280;69410;47.648;19.030;2023-04-25T00:59:25;99372.97;;;11.90;70.89
80103;BME280;69410;47.648;19.030;2023-04-25T00:59:56;99365.38;;;11.95;70.85
80103;BME280;69410;47.648;19.030;2023-04-25T01:00:27;99382.53;;;11.99;nan
80103;BME280;69410;47.648;19.030;2023-04-25T01:00:57;99378.75;;;12.02;70.57
80103;BME280;69410;47.648;19.030;2023-04-25T01:01:29;99377.09;;;12.01;70.67
80103;BME280;69410;47.648;19.030;2023-04-25T01:02:00;99370.84;;;12.02;70.57
80103;BME280;69410;47.648;19.030;2023-04-25T01:02:33;99371.00;;;12.00;71.21
80103;BME280;69410;47.648;19.030;2023-04-25T01:03:04;99376.09;;;12.02;69.92
80103;BME280;69410;47.648;19.030;2023-04-25T01:03:37;99367.38;;;12.01;70.08
80103;BME280;69410;47.648;19.030;2023-04-25T01:04:08;99368.69;;;11.97;69.94
80103;BME280;69410;47.648;19.030;2023-04-25T01:04:39;99366.88;;;11.98;70.04
80103;BME280;69410;47.648;19.030;2023-04-25T01:05:10;99373.28;;;11.95;70.33
80103;BME280;69410;47.648;19.030;2023-04-25T01:05:42;99377.25;;;11.99;70.60
80103;BME280;69410;47.648;19.030;2023-04-25T01:06:13;99375.28;;;11.93;70.77
80103;BME280;69410;47.648;19.030;2023-04-25T01:06:44;99374.44;;;11.93;70.59
80103;BME280;69410;47.648;19.030;2023-04-25T01:07:15;99378.41;;;11.97;70.85
80103;BME280;69410;47.648;19.030;2023-04-25T01:07:45;99377.44;;;12.06;70.67
80103;BME280;69410;47.648;19.030;2023-04-25T01:08:16;99370.97;;;12.08;70.68
80103;BME280;69410;47.648;19.030;2023-04-25T01:08:47;99378.41;;;12.05;70.38
80103;BME280;69410;47.648;19.030;2023-04-25T01:09:18;99376.75;;;11.96;70.87
80103;BME280;69410;47.648;19.030;2023-04-25T01:09:51;99373.97;;;11.97;69.69
80103;BME280;69410;47.648;19.030;2023-04-25T01:10:22;99365.38;;;11.95;69.74
80103;BME280;69410;47.648;19.030;2023-04-25T01:10:53;99369.19;;;11.93;69.97
80103;BME280;69410;47.648;19.030;2023-04-25T01:11:24;99373.28;;;11.95;69.75
80103;BME280;69410;47.648;19.030;2023-04-25T01:11:55;99381.19;;;11.95;69.54
80103;BME280;69410;47.648;19.030;2023-04-25T01:12:25;99371.13;;;11.99;70.22
80103;BME280;69410;47.648;19.030;2023-04-25T01:12:56;99366.53;;;12.01;70.22
80103;BME280;69410;47.648;19.030;2023-04-25T01:13:27;99376.09;;;11.94;70.22
80103;BME280;69410;47.648;19.030;2023-04-25T01:13:58;99383.34;;;11.92;70.72
80103;BME280;69410;47.648;19.030;2023-04-25T01:14:29;99376.94;;;11.86;70.63
80103;BME280;69410;47.648;19.030;2023-04-25T01:15:00;99373.97;;;11.89;69.49
80103;BME280;69410;47.648;19.030;2023-04-25T01:15:30;99366.19;;;11.88;70.16
80103;BME280;69410;47.648;19.030;2023-04-25T01:16:02;99371.81;;;11.85;70.90
80103;BME280;69410;47.648;19.030;2023-04-25T01:16:33;99370.16;;;11.84;70.65
80103;BME280;69410;47.648;19.030;2023-04-25T01:17:04;99373.47;;;11.86;70.60
80103;BME280;69410;47.648;19.030;2023-04-25T01:17:36;99373.78;;;11.91;69.99
80103;BME280;69410;47.648;19.030;2023-04-25T01:18:07;99371.66;;;11.94;70.61
80103;BME280;69410;47.648;19.030;2023-04-25T01:18:38;99378.41;;;11.97;69.71
80103;BME280;69410;47.648;19.030;2023-04-25T01:19:11;99382.03;;;11.88;70.24
80103;BME280;69410;47.648;19.030;2023-04-25T01:19:42;99365.88;;;11.91;69.73
80103;BME280;69410;47.648;19.030;2023-04-25T01:20:14;99380.38;;;11.95;70.44
80103;BME280;69410;47.648;19.030;2023-04-25T01:20:46;99380.72;;;11.92;70.05
80103;BME280;69410;47.648;19.030;2023-04-25T01:21:18;99382.22;;;11.94;70.79
80103;BME280;69410;47.648;19.030;2023-04-25T01:21:50;99381.53;;;11.92;70.19
80103;BME280;69410;47.648;19.030;2023-04-25T01:22:21;99375.94;;;11.95;70.43
80103;BME280;69410;47.648;19.030;2023-04-25T01:22:52;99365.88;;;11.99;70.54
80103;BME280;69410;47.648;19.030;2023-04-25T01:23:23;99374.94;;;11.96;70.09
80103;BME280;69410;47.648;19.030;2023-04-25T01:23:54;99385.00;;;11.93;70.41
80103;BME280;69410;47.648;19.030;2023-04-25T01:24:25;99377.91;;;11.93;69.94
80103;BME280;69410;47.648;19.030;2023-04-25T01:24:57;99376.75;;;11.96;70.32
80103;BME280;69410;47.648;19.030;2023-04-25T01:25:28;99382.38;;;12.01;70.25
80103;BME280;69410;47.648;19.030;2023-04-25T01:26:00;99376.41;;;11.99;69.43
80103;BME280;69410;47.648;19.030;2023-04-25T01:26:32;99376.59;;;11.97;70.16
80103;BME280;69410;47.648;19.030;2023-04-25T01:27:04;99384.19;;;11.84;70.50
80103;BME280;69410;47.648;19.030;2023-04-25T01:27:35;99379.25;;;11.89;70.59
80103;BME280;69410;47.648;19.030;2023-04-25T01:28:07;99381.88;;;11.81;70.01
80103;BME280;69410;47.648;19.030;2023-04-25T01:28:40;99360.44;;;11.84;70.72
80103;BME280;69410;47.648;19.030;2023-04-25T01:29:10;99376.41;;;11.83;70.31
80103;BME280;69410;47.648;19.030;2023-04-25T01:29:41;99381.38;;;11.86;70.74
80103;BME280;69410;47.648;19.030;2023-04-25T01:30:13;99379.06;;;11.91;70.49
80103;BME280;69410;47.648;19.030;2023-04-25T01:30:44;99378.41;;;11.89;70.58
80103;BME280;69410;47.648;19.030;2023-04-25T01:31:15;99375.28;;;11.93;69.92
80103;BME280;69410;47.648;19.030;2023-04-25T01:31:47;99381.19;;;11.95;70.14
80103;BME280;69410;47.648;19.030;2023-04-25T01:32:18;99378.91;;;11.92;69.83
80103;BME280;69410;47.648;19.030;2023-04-25T01:32:49;99377.25;;;11.91;70.72
80103;BME280;69410;47.648;19.030;2023-04-25T01:33:21;99374.59;;;11.91;70.97
80103;BME280;69410;47.648;19.030;2023-04-25T01:33:52;99372.78;;;11.92;70.59
80103;BME280;69410;47.648;19.030;2023-04-25T01:34:23;99368.69;;;11.81;71.03
80103;BME280;69410;47.648;19.030;2023-04-25T01:34:54;99327.59;;;11.78;70.75
80103;BME280;69410;47.648;19.030;2023-04-25T01:35:25;99357.94;;;11.74;70.51
80103;BME280;69410;47.648;19.030;2023-04-25T01:35:56;99365.84;;;11.74;71.59
80103;BME280;69410;47.648;19.030;2023-04-25T01:36:28;99370.97;;;11.76;70.74
80103;BME280;69410;47.648;19.030;2023-04-25T01:37:00;99362.69;;;11.71;70.63
80103;BME280;69410;47.648;19.030;2023-04-25T01:37:31;99362.25;;;11.75;70.75
80103;BME280;69410;47.648;19.030;2023-04-25T01:38:02;99372.31;;;11.80;71.23
80103;BME280;69410;47.648;19.030;2023-04-25T01:38:32;99370.34;;;11.82;70.93
80103;BME280;69410;47.648;19.030;2023-04-25T01:39:04;99371.97;;;11.83;70.81
80103;BME280;69410;47.648;19.030;2023-04-25T01:39:35;99366.38;;;11.86;70.49
80103;BME280;69410;47.648;19.030;2023-04-25T01:40:07;99359.78;;;11.74;71.33
80103;BME280;69410;47.648;19.030;2023-04-25T01:40:39;99363.72;;;11.70;70.65
80103;BME280;69410;47.648;19.030;2023-04-25T01:41:10;99355.44;;;11.65;71.75
80103;BME280;69410;47.648;19.030;2023-04-25T01:41:41;99346.88;;;11.71;70.70
80103;BME280;69410;47.648;19.030;2023-04-25T01:42:13;99353.50;;;11.75;70.77
80103;BME280;69410;47.648;19.030;2023-04-25T01:42:44;99350.56;;;11.78;71.21
80103;BME280;69410;47.648;19.030;2023-04-25T01:43:15;99347.09;;;11.77;70.99
80103;BME280;69410;47.648;19.030;2023-04-25T01:43:46;99355.97;;;11.76;70.08
80103;BME280;69410;47.648;19.030;2023-04-25T01:44:17;99348.06;;;11.76;69.79
80103;BME280;69410;47.648;19.030;2023-04-25T01:44:48;99360.44;;;11.76;70.32
80103;BME280;69410;47.648;19.030;2023-04-25T01:45:19;99353.50;;;11.75;70.51
80103;BME280;69410;47.648;19.030;2023-04-25T01:45:50;99358.28;;;11.80;70.13
80103;BME280;69410;47.648;19.030;2023-04-25T01:46:21;99350.03;;;11.83;70.19
80103;BME280;69410;47.648;19.030;2023-04-25T01:46:53;99355.81;;;11.78;70.45
80103;BME280;69410;47.648;19.030;2023-04-25T01:47:24;99351.69;;;11.84;69.91
80103;BME280;69410;47.648;19.030;2023-04-25T01:47:54;99358.13;;;11.89;70.15
80103;BME280;69410;47.648;19.030;2023-04-25T01:48:25;99353.00;;;11.88;70.04
80103;BME280;69410;47.648;19.030;2023-04-25T01:48:56;99345.59;;;11.83;69.56
80103;BME280;69410;47.648;19.030;2023-04-25T01:49:27;99349.88;;;11.76;69.75
80103;BME280;69410;47.648;19.030;2023-04-25T01:49:58;99331.56;;;11.74;70.28
80103;BME280;69410;47.648;19.030;2023-04-25T01:50:30;99324.81;;;11.72;70.18
80103;BME280;69410;47.648;19.030;2023-04-25T01:51:03;99338.69;;;11.74;70.45
80103;BME280;69410;47.648;19.030;2023-04-25T01:51:36;99353.16;;;11.70;70.31
80103;BME280;69410;47.648;19.030;2023-04-25T01:52:07;99335.00;;;11.67;70.39
80103;BME280;69410;47.648;19.030;2023-04-25T01:52:38;99327.56;;;11.70;69.98
80103;BME280;69410;47.648;19.030;2023-04-25T01:53:09;99331.38;;;11.68;69.95
80103;BME280;69410;47.648;19.030;2023-04-25T01:53:40;99345.25;;;11.70;69.76
80103;BME280;69410;47.648;19.030;2023-04-25T01:54:12;99334.00;;;11.68;70.32
80103;BME280;69410;47.648;19.030;2023-04-25T01:54:43;99318.03;;;11.69;70.05
80103;BME280;69410;47.648;19.030;2023-04-25T01:55:14;99324.00;;;11.71;69.53
80103;BME280;69410;47.648;19.030;2023-04-25T01:55:45;99307.00;;;11.66;70.49
80103;BME280;69410;47.648;19.030;2023-04-25T01:56:17;99322.00;;;11.65;70.38
80103;BME280;69410;47.648;19.030;2023-04-25T01:56:50;99304.84;;;11.61;70.41
80103;BME280;69410;47.648;19.030;2023-04-25T01:57:21;99332.53;;;11.65;69.72
80103;BME280;69410;47.648;19.030;2023-04-25T01:57:51;99330.41;;;11.61;69.78
80103;BME280;69410;47.648;19.030;2023-04-25T01:58:22;99330.25;;;11.62;69.17
80103;BME280;69410;47.648;19.030;2023-04-25T01:58:56;99311.59;;;11.64;69.89
80103;BME280;69410;47.648;19.030;2023-04-25T01:59:28;99308.31;;;11.62;69.76
80103;BME280;69410;47.648;19.030;2023-04-25T02:00:01;99313.88;;;11.59;69.96
80103;BME280;69410;47.648;19.030;2023-04-25T02:00:32;99300.22;;;11.55;69.11
80103;BME280;69410;47.648;19.030;2023-04-25T02:01:03;99321.31;;;11.55;70.24
80103;BME280;69410;47.648;19.030;2023-04-25T02:01:34;99303.53;;;11.57;69.95
80103;BME280;69410;47.648;19.030;2023-04-25T02:02:05;99313.25;;;11.57;69.43
80103;BME280;69410;47.648;19.030;2023-04-25T02:02:36;99307.47;;;11.61;69.48
80103;BME280;69410;47.648;19.030;2023-04-25T02:03:07;99309.16;;;11.62;69.46
80103;BME280;69410;47.648;19.030;2023-04-25T02:03:38;99306.66;;;11.61;69.61
80103;BME280;69410;47.648;19.030;2023-04-25T02:04:09;99299.72;;;11.60;69.33
80103;BME280;69410;47.648;19.030;2023-04-25T02:04:39;99329.06;;;11.57;70.03
80103;BME280;69410;47.648;19.030;2023-04-25T02:05:10;99316.53;;;11.59;69.06
80103;BME280;69410;47.648;19.030;2023-04-25T02:05:41;99328.91;;;11.58;69.65
80103;BME280;69410;47.648;19.030;2023-04-25T02:06:12;99307.28;;;11.55;69.95
80103;BME280;69410;47.648;19.030;2023-04-25T02:06:44;99315.41;;;11.61;69.47
80103;BME280;69410;47.648;19.030;2023-04-25T02:07:16;99312.25;;;11.58;68.70
80103;BME280;69410;47.648;19.030;2023-04-25T02:07:47;99304.34;;;11.58;69.68
80103;BME280;69410;47.648;19.030;2023-04-25T02:08:18;99309.63;;;11.58;69.22
80103;BME280;69410;47.648;19.030;2023-04-25T02:08:49;99317.22;;;11.61;68.65
80103;BME280;69410;47.648;19.030;2023-04-25T02:09:20;99302.69;;;11.57;69.15
80103;BME280;69410;47.648;19.030;2023-04-25T02:09:51;99314.41;;;11.54;69.12
80103;BME280;69410;47.648;19.030;2023-04-25T02:10:22;99311.59;;;11.56;69.60
80103;BME280;69410;47.648;19.030;2023-04-25T02:10:53;99321.81;;;11.59;69.41
80103;BME280;69410;47.648;19.030;2023-04-25T02:11:24;99311.44;;;11.57;70.14
80103;BME280;69410;47.648;19.030;2023-04-25T02:11:55;99318.66;;;11.55;69.60
80103;BME280;69410;47.648;19.030;2023-04-25T02:12:27;99298.25;;;11.49;69.36
80103;BME280;69410;47.648;19.030;2023-04-25T02:12:58;99293.81;;;11.50;69.51
80103;BME280;69410;47.648;19.030;2023-04-25T02:13:29;99315.06;;;11.48;69.83
80103;BME280;69410;47.648;19.030;2023-04-25T02:13:59;99316.22;;;11.46;69.95
80103;BME280;69410;47.648;19.030;2023-04-25T02:14:30;99295.94;;;11.46;70.07
80103;BME280;69410;47.648;19.030;2023-04-25T02:15:01;99311.59;;;11.48;70.55
80103;BME280;69410;47.648;19.030;2023-04-25T02:15:32;99306.66;;;11.45;69.55
80103;BME280;69410;47.648;19.030;2023-04-25T02:16:03;99315.88;;;11.49;69.90
80103;BME280;69410;47.648;19.030;2023-04-25T02:16:33;99302.53;;;11.50;69.52
80103;BME280;69410;47.648;19.030;2023-04-25T02:17:04;99300.41;;;11.46;69.21
80103;BME280;69410;47.648;19.030;2023-04-25T02:17:35;99305.97;;;11.51;69.54
80103;BME280;69410;47.648;19.030;2023-04-25T02:18:06;99308.47;;;11.52;69.34
80103;BME280;69410;47.648;19.030;2023-04-25T02:18:39;99307.63;;;11.52;69.95
80103;BME280;69410;47.648;19.030;2023-04-25T02:19:12;99304.34;;;11.50;69.59
80103;BME280;69410;47.648;19.030;2023-04-25T02:19:43;99308.31;;;11.46;69.90
80103;BME280;69410;47.648;19.030;2023-04-25T02:20:17;99305.19;;;11.50;69.45
80103;BME280;69410;47.648;19.030;2023-04-25T02:20:48;99298.25;;;11.49;70.13
80103;BME280;69410;47.648;19.030;2023-04-25T02:21:19;99307.81;;;11.50;69.58
80103;BME280;69410;47.648;19.030;2023-04-25T02:21:51;99302.53;;;11.50;69.59
80103;BME280;69410;47.648;19.030;2023-04-25T02:22:22;99313.25;;;11.49;70.63
80103;BME280;69410;47.648;19.030;2023-04-25T02:22:53;99300.88;;;11.49;69.82
80103;BME280;69410;47.648;19.030;2023-04-25T02:23:23;99307.97;;;11.49;70.65
80103;BME280;69410;47.648;19.030;2023-04-25T02:23:54;99313.72;;;11.44;69.79
80103;BME280;69410;47.648;19.030;2023-04-25T02:24:25;99324.28;;;11.44;69.84
80103;BME280;69410;47.648;19.030;2023-04-25T02:24:56;99331.03;;;11.47;69.46
80103;BME280;69410;47.648;19.030;2023-04-25T02:25:27;99318.03;;;11.45;69.74
80103;BME280;69410;47.648;19.030;2023-04-25T02:25:58;99306.81;;;11.51;68.92
80103;BME280;69410;47.648;19.030;2023-04-25T02:26:29;99304.66;;;11.55;68.94
80103;BME280;69410;47.648;19.030;2023-04-25T02:26:59;99312.56;;;11.55;69.07
80103;BME280;69410;47.648;19.030;2023-04-25T02:27:30;99291.16;;;11.50;68.26
80103;BME280;69410;47.648;19.030;2023-04-25T02:28:01;99315.88;;;11.49;69.46
80103;BME280;69410;47.648;19.030;2023-04-25T02:28:32;99298.59;;;11.46;68.76
80103;BME280;69410;47.648;19.030;2023-04-25T02:29:03;99318.03;;;11.45;69.12
80103;BME280;69410;47.648;19.030;2023-04-25T02:29:34;99319.97;;;11.43;68.67
80103;BME280;69410;47.648;19.030;2023-04-25T02:30:05;99318.16;;;11.44;67.92
80103;BME280;69410;47.648;19.030;2023-04-25T02:30:36;99313.38;;;11.47;68.29
80103;BME280;69410;47.648;19.030;2023-04-25T02:31:07;99309.78;;;11.48;67.51
80103;BME280;69410;47.648;19.030;2023-04-25T02:31:38;99292.78;;;11.43;67.23
80103;BME280;69410;47.648;19.030;2023-04-25T02:32:09;99325.59;;;11.48;67.58
80103;BME280;69410;47.648;19.030;2023-04-25T02:32:40;99290.81;;;11.45;68.38
80103;BME280;69410;47.648;19.030;2023-04-25T02:33:11;99308.44;;;11.44;67.91
80103;BME280;69410;47.648;19.030;2023-04-25T02:33:42;99312.75;;;11.45;67.47
80103;BME280;69410;47.648;19.030;2023-04-25T02:34:13;99305.66;;;11.46;67.67
80103;BME280;69410;47.648;19.030;2023-04-25T02:34:44;99306.66;;;11.45;66.98
80103;BME280;69410;47.648;19.030;2023-04-25T02:35:14;99303.19;;;11.44;67.17
80103;BME280;69410;47.648;19.030;2023-04-25T02:35:45;99306.31;;;11.48;67.38
80103;BME280;69410;47.648;19.030;2023-04-25T02:36:16;99297.28;;;11.50;67.72
80103;BME280;69410;47.648;19.030;2023-04-25T02:36:48;99297.28;;;11.50;66.51
80103;BME280;69410;47.648;19.030;2023-04-25T02:37:20;99295.78;;;11.56;67.11
80103;BME280;69410;47.648;19.030;2023-04-25T02:37:52;99297.09;;;11.52;67.52
80103;BME280;69410;47.648;19.030;2023-04-25T02:38:26;99305.34;;;11.49;66.75
80103;BME280;69410;47.648;19.030;2023-04-25T02:38:57;99301.03;;;11.48;67.07
80103;BME280;69410;47.648;19.030;2023-04-25T02:39:27;99295.75;;;11.48;67.16
80103;BME280;69410;47.648;19.030;2023-04-25T02:39:58;99295.63;;;11.49;66.20
80103;BME280;69410;47.648;19.030;2023-04-25T02:40:29;99293.13;;;11.48;66.61
80103;BME280;69410;47.648;19.030;2023-04-25T02:41:00;99299.91;;;11.42;66.27
80103;BME280;69410;47.648;19.030;2023-04-25T02:41:31;99299.06;;;11.42;66.72
80103;BME280;69410;47.648;19.030;2023-04-25T02:42:02;99299.72;;;11.44;66.66
80103;BME280;69410;47.648;19.030;2023-04-25T02:42:32;99290.81;;;11.45;67.32
80103;BME280;69410;47.648;19.030;2023-04-25T02:43:03;99308.44;;;11.44;67.69